Time;durP1;ratioP1;P1;durP2;ratioP2;P2;SDS_P1;SDS_P2;PMS_P1;PMS_P2;Temp;Humidity;BMP_temperature;BMP_pressure;BME280_temperature;BME280_humidity;BME280_pressure;Samples;Min_cycle;Max_cycle;Signal;HPM_P1;HPM_P2
2022/02/16 00:02:23;;;;;;;61.30;39.95;;;;;;;6.75;100.00;100340.00;5113271;28;20027;-76
2022/02/16 00:04:49;;;;;;;61.40;39.03;;;;;;;6.77;100.00;100335.41;5113271;28;20175;-77
2022/02/16 00:07:14;;;;;;;58.13;36.03;;;;;;;6.75;100.00;100342.66;5114529;28;20386;-77
2022/02/16 00:09:39;;;;;;;60.70;39.10;;;;;;;6.70;100.00;100327.97;5114065;28;20023;-76
2022/02/16 00:12:05;;;;;;;57.42;37.47;;;;;;;6.69;100.00;100320.94;5111258;28;20383;-77
2022/02/16 00:14:31;;;;;;;60.75;37.85;;;;;;;6.70;100.00;100312.84;5114045;28;20030;-76
2022/02/16 00:16:57;;;;;;;57.65;38.00;;;;;;;6.59;100.00;100290.59;5114364;28;20024;-76
2022/02/16 00:19:23;;;;;;;62.10;38.05;;;;;;;6.66;100.00;100313.16;5113923;28;20027;-76
2022/02/16 00:21:48;;;;;;;58.88;37.17;;;;;;;6.62;100.00;100311.69;5113880;28;20348;-77
2022/02/16 00:24:14;;;;;;;59.95;37.78;;;;;;;6.67;100.00;100323.72;5113837;28;20044;-76
2022/02/16 00:26:39;;;;;;;56.30;36.67;;;;;;;6.62;100.00;100317.03;5113716;28;20399;-75
2022/02/16 00:29:05;;;;;;;62.97;38.70;;;;;;;6.66;100.00;100338.00;5113607;28;20027;-76
2022/02/16 00:31:30;;;;;;;66.43;38.75;;;;;;;6.61;100.00;100339.31;5113675;28;20046;-75
2022/02/16 00:33:56;;;;;;;62.00;38.42;;;;;;;6.57;100.00;100340.47;5113492;28;20041;-73
2022/02/16 00:36:21;;;;;;;63.83;39.58;;;;;;;6.49;100.00;100333.00;5113490;28;20019;-75
2022/02/16 00:38:47;;;;;;;60.42;38.42;;;;;;;6.51;100.00;100338.22;5113375;28;20026;-75
2022/02/16 00:41:13;;;;;;;60.78;37.63;;;;;;;6.41;100.00;100314.06;5113183;28;20035;-75
2022/02/16 00:43:38;;;;;;;61.03;37.83;;;;;;;6.49;100.00;100322.34;5113065;28;20067;-75
2022/02/16 00:46:04;;;;;;;64.07;39.05;;;;;;;6.37;100.00;100303.72;5113502;28;20028;-77
2022/02/16 00:48:29;;;;;;;63.78;38.92;;;;;;;6.46;100.00;100311.09;5113437;28;20074;-76
2022/02/16 00:50:55;;;;;;;64.38;38.55;;;;;;;6.45;100.00;100306.72;5113537;28;20072;-76
2022/02/16 00:53:21;;;;;;;60.47;37.63;;;;;;;6.36;100.00;100292.22;5113486;28;20030;-76
2022/02/16 00:55:47;;;;;;;63.90;38.53;;;;;;;6.38;100.00;100298.31;5113006;28;20062;-76
2022/02/16 00:58:12;;;;;;;61.10;36.90;;;;;;;6.47;100.00;100310.09;5113302;28;20043;-77
2022/02/16 01:00:38;;;;;;;59.85;38.60;;;;;;;6.31;100.00;100281.06;5113264;28;20077;-75
2022/02/16 01:03:03;;;;;;;64.32;37.53;;;;;;;6.37;100.00;100291.28;5112988;28;20034;-76
2022/02/16 01:05:29;;;;;;;63.47;38.45;;;;;;;6.29;100.00;100280.31;5113129;28;20070;-75
2022/02/16 01:07:54;;;;;;;62.33;38.67;;;;;;;6.30;100.00;100281.16;5113035;27;20053;-76
2022/02/16 01:10:20;;;;;;;57.20;37.92;;;;;;;6.32;100.00;100288.06;5112758;28;20507;-76
2022/02/16 01:12:46;;;;;;;61.78;38.05;;;;;;;6.30;100.00;100287.34;5111466;28;20039;-77
2022/02/16 01:15:12;;;;;;;59.10;37.42;;;;;;;6.35;100.00;100292.31;5111773;28;20118;-76
2022/02/16 01:17:38;;;;;;;61.97;37.78;;;;;;;6.36;100.00;100289.56;5112243;28;20030;-70
2022/02/16 01:20:05;;;;;;;62.45;37.10;;;;;;;6.34;100.00;100287.97;5111311;27;20028;-70
2022/02/16 01:22:32;;;;;;;59.10;35.97;;;;;;;6.32;100.00;100292.56;5111686;28;20027;-70
2022/02/16 01:24:57;;;;;;;63.58;40.60;;;;;;;6.29;100.00;100293.63;5111394;28;20129;-70
2022/02/16 01:27:24;;;;;;;62.10;38.83;;;;;;;6.24;100.00;100293.09;5111061;28;20126;-71
2022/02/16 01:29:49;;;;;;;59.97;37.88;;;;;;;6.26;100.00;100296.50;5111223;28;20036;-70
2022/02/16 01:32:15;;;;;;;61.60;38.90;;;;;;;6.24;100.00;100295.78;5110720;28;20039;-70
2022/02/16 01:34:40;;;;;;;57.90;37.25;;;;;;;6.27;100.00;100287.56;5110900;28;20059;-70
2022/02/16 01:37:06;;;;;;;60.92;37.92;;;;;;;6.24;100.00;100289.59;5111479;28;20035;-69
2022/02/16 01:39:31;;;;;;;63.90;38.58;;;;;;;6.27;100.00;100284.03;5111012;28;20062;-70
2022/02/16 01:41:57;;;;;;;62.30;39.05;;;;;;;6.27;100.00;100273.38;5109292;28;20363;-70
2022/02/16 01:44:23;;;;;;;62.85;38.42;;;;;;;6.20;100.00;100262.34;5110830;28;20039;-71
2022/02/16 01:46:54;;;;;;;61.25;38.40;;;;;;;6.29;100.00;100277.63;5110733;27;20510;-70
2022/02/16 01:49:21;;;;;;;57.33;36.35;;;;;;;6.28;100.00;100281.28;5109133;28;20023;-71
2022/02/16 01:51:47;;;;;;;62.35;38.65;;;;;;;6.31;100.00;100282.84;5110555;28;20031;-70
2022/02/16 01:54:13;;;;;;;61.47;37.25;;;;;;;6.25;100.00;100273.50;5110560;28;20050;-70
2022/02/16 01:56:42;;;;;;;59.85;38.63;;;;;;;6.26;100.00;100272.53;5110504;28;20083;-69
2022/02/16 01:59:09;;;;;;;64.03;38.38;;;;;;;6.23;100.00;100258.59;5110593;28;20080;-71
2022/02/16 02:01:35;;;;;;;60.53;37.90;;;;;;;6.24;100.00;100242.50;5110425;27;20023;-70
2022/02/16 02:04:00;;;;;;;61.55;39.53;;;;;;;6.27;100.00;100242.28;5111078;28;20016;-70
2022/02/16 02:06:25;;;;;;;61.10;40.70;;;;;;;6.24;100.00;100242.50;5110438;28;20031;-69
2022/02/16 02:08:51;;;;;;;59.05;38.50;;;;;;;6.24;100.00;100239.84;5110393;28;20027;-69
2022/02/16 02:11:16;;;;;;;63.05;38.53;;;;;;;6.25;100.00;100241.53;5108730;28;20028;-70
2022/02/16 02:14:02;;;;;;;59.80;38.58;;;;;;;6.20;100.00;100246.34;5109750;28;20027;-70
2022/02/16 02:16:28;;;;;;;56.58;36.63;;;;;;;6.20;100.00;100242.84;5109704;27;20490;-71
2022/02/16 02:18:54;;;;;;;60.60;37.55;;;;;;;6.17;100.00;100238.59;5110323;28;20024;-71
2022/02/16 02:21:20;;;;;;;59.28;37.72;;;;;;;6.17;100.00;100229.75;5109838;28;20038;-70
2022/02/16 02:23:46;;;;;;;57.50;37.13;;;;;;;6.16;100.00;100242.19;5108291;28;20084;-69
2022/02/16 02:26:13;;;;;;;58.63;37.92;;;;;;;6.14;100.00;100230.81;5109149;28;20032;-69
2022/02/16 02:28:39;;;;;;;61.85;37.63;;;;;;;6.15;100.00;100226.31;5110724;28;20027;-76
2022/02/16 02:31:05;;;;;;;59.35;38.20;;;;;;;6.03;100.00;100211.25;5110684;28;20143;-77
2022/02/16 02:33:30;;;;;;;58.35;37.08;;;;;;;6.13;100.00;100226.44;5110104;28;20031;-76
2022/02/16 02:35:56;;;;;;;56.53;37.38;;;;;;;6.13;100.00;100229.09;5110104;28;20028;-76
2022/02/16 02:38:22;;;;;;;56.33;36.20;;;;;;;6.07;100.00;100223.38;5110257;28;20056;-76
2022/02/16 02:40:54;;;;;;;56.65;37.25;;;;;;;6.09;100.00;100224.09;5108438;28;20020;-75
2022/02/16 02:43:20;;;;;;;59.35;37.70;;;;;;;6.07;100.00;100205.59;5107841;28;20044;-76
2022/02/16 02:45:46;;;;;;;60.53;37.80;;;;;;;6.04;100.00;100210.28;5110257;28;20083;-76
2022/02/16 02:48:12;;;;;;;61.40;38.30;;;;;;;5.95;100.00;100198.47;5109092;28;20023;-76
2022/02/16 02:50:37;;;;;;;59.63;38.13;;;;;;;6.01;100.00;100222.00;5109827;28;20030;-76
2022/02/16 02:53:02;;;;;;;60.20;36.15;;;;;;;5.95;100.00;100225.09;5109452;28;20383;-77
2022/02/16 02:55:28;;;;;;;62.33;38.42;;;;;;;5.87;100.00;100210.63;5109848;28;20031;-76
2022/02/16 02:57:54;;;;;;;60.13;36.83;;;;;;;5.89;100.00;100225.50;5109443;28;20493;-76
2022/02/16 03:00:19;;;;;;;63.45;38.58;;;;;;;5.91;100.00;100236.06;5108112;28;20501;-76
2022/02/16 03:02:45;;;;;;;57.75;37.40;;;;;;;5.85;100.00;100232.00;5109096;28;20050;-76
2022/02/16 03:05:11;;;;;;;59.47;38.65;;;;;;;5.81;100.00;100243.81;5109356;28;20039;-77
2022/02/16 03:07:37;;;;;;;59.10;38.40;;;;;;;5.72;100.00;100247.09;5109323;28;20102;-76
2022/02/16 03:10:03;;;;;;;63.90;39.45;;;;;;;5.68;100.00;100256.22;5109696;28;20027;-77
2022/02/16 03:12:29;;;;;;;62.50;39.03;;;;;;;5.65;100.00;100252.94;5108603;28;20023;-76
2022/02/16 03:14:54;;;;;;;57.13;37.35;;;;;;;5.61;100.00;100268.25;5108687;28;20586;-76
2022/02/16 03:17:20;;;;;;;66.20;39.15;;;;;;;5.52;100.00;100260.91;5108595;28;20046;-76
2022/02/16 03:19:45;;;;;;;63.28;38.72;;;;;;;5.50;100.00;100272.59;5108881;28;20123;-76
2022/02/16 03:22:11;;;;;;;59.03;38.60;;;;;;;5.47;100.00;100271.00;5107366;28;20031;-76
2022/02/16 03:24:37;;;;;;;66.03;41.05;;;;;;;5.38;100.00;100282.25;5108577;28;20023;-76
2022/02/16 03:27:03;;;;;;;63.70;38.92;;;;;;;5.38;100.00;100298.22;5107384;28;20391;-77
2022/02/16 03:29:28;;;;;;;65.97;38.80;;;;;;;5.30;100.00;100287.25;5108293;28;20058;-76
2022/02/16 03:31:53;;;;;;;63.35;38.15;;;;;;;5.32;100.00;100285.31;5108160;28;20020;-76
2022/02/16 03:34:19;;;;;;;64.45;40.70;;;;;;;5.29;100.00;100293.50;5108047;28;20103;-76
2022/02/16 03:36:44;;;;;;;61.15;39.80;;;;;;;5.20;100.00;100279.97;5107853;28;20028;-76
2022/02/16 03:39:10;;;;;;;57.67;39.28;;;;;;;5.29;100.00;100296.16;5108586;28;20052;-76
2022/02/16 03:41:36;;;;;;;65.15;39.67;;;;;;;5.20;100.00;100288.81;5108668;28;20126;-76
2022/02/16 03:44:02;;;;;;;65.55;40.42;;;;;;;5.24;100.00;100313.38;5108046;28;20038;-76
2022/02/16 03:46:27;;;;;;;65.70;40.72;;;;;;;5.19;100.00;100308.34;5108577;28;20024;-77
2022/02/16 03:48:52;;;;;;;66.95;41.40;;;;;;;5.17;100.00;100312.94;5106327;28;20103;-77
2022/02/16 03:51:18;;;;;;;62.75;38.78;;;;;;;5.21;100.00;100311.78;5107980;28;20454;-70
2022/02/16 03:53:44;;;;;;;67.95;40.92;;;;;;;5.20;100.00;100307.44;5107800;28;20026;-71
2022/02/16 03:56:11;;;;;;;67.32;40.60;;;;;;;5.21;100.00;100310.91;5107827;28;20031;-71
2022/02/16 03:58:36;;;;;;;65.20;42.70;;;;;;;5.09;100.00;100287.81;5108102;28;20746;-69
2022/02/16 04:01:03;;;;;;;72.43;44.33;;;;;;;5.19;100.00;100292.41;5107804;28;20036;-70
2022/02/16 04:03:28;;;;;;;67.95;42.53;;;;;;;5.14;100.00;100278.59;5105302;28;20035;-71
2022/02/16 04:05:54;;;;;;;72.50;43.92;;;;;;;5.20;100.00;100288.81;5107571;28;20039;-69
2022/02/16 04:08:19;;;;;;;69.97;42.00;;;;;;;5.18;100.00;100292.50;5107642;28;20027;-69
2022/02/16 04:10:45;;;;;;;67.00;41.13;;;;;;;5.18;100.00;100295.16;5107465;28;20024;-69
2022/02/16 04:13:10;;;;;;;69.13;42.08;;;;;;;5.21;100.00;100301.16;5107275;28;20035;-70
2022/02/16 04:15:36;;;;;;;67.95;42.63;;;;;;;5.18;100.00;100292.50;5107757;28;20039;-70
2022/02/16 04:18:02;;;;;;;67.15;42.50;;;;;;;5.25;100.00;100302.63;5107551;28;20028;-70
2022/02/16 04:20:28;;;;;;;66.82;42.92;;;;;;;5.28;100.00;100309.56;5107489;28;20084;-69
2022/02/16 04:22:53;;;;;;;68.55;42.30;;;;;;;5.31;100.00;100298.72;5107725;28;21605;-71
2022/02/16 04:25:19;;;;;;;73.20;42.67;;;;;;;5.30;100.00;100305.00;5105954;28;20031;-71
2022/02/16 04:27:46;;;;;;;73.07;44.30;;;;;;;5.38;100.00;100314.16;5107183;28;20111;-70
2022/02/16 04:30:12;;;;;;;73.40;42.80;;;;;;;5.38;100.00;100324.81;5105806;28;20450;-70
2022/02/16 04:32:38;;;;;;;67.93;41.72;;;;;;;5.33;100.00;100324.28;5107573;28;20063;-70
2022/02/16 04:35:04;;;;;;;69.93;41.17;;;;;;;5.36;100.00;100307.25;5107193;28;20027;-69
2022/02/16 04:37:30;;;;;;;74.50;42.63;;;;;;;5.36;100.00;100309.91;5107279;28;20038;-69
2022/02/16 04:39:56;;;;;;;77.15;45.15;;;;;;;5.35;100.00;100300.25;5105897;28;20023;-70
2022/02/16 04:42:22;;;;;;;79.65;44.20;;;;;;;5.48;100.00;100309.09;5106853;28;20048;-69
2022/02/16 04:44:48;;;;;;;73.63;43.95;;;;;;;5.38;100.00;100287.56;5107134;28;20543;-68
2022/02/16 04:47:13;;;;;;;76.90;44.90;;;;;;;5.45;100.00;100303.97;5109418;28;20091;-70
2022/02/16 04:49:38;;;;;;;77.28;44.60;;;;;;;5.54;100.00;100308.66;5111168;28;20161;-70
2022/02/16 04:52:04;;;;;;;76.15;45.75;;;;;;;5.56;100.00;100326.25;5110566;28;20030;-71
2022/02/16 04:54:31;;;;;;;79.38;46.05;;;;;;;5.63;100.00;100324.88;5110681;28;20042;-69
2022/02/16 04:56:56;;;;;;;76.82;45.38;;;;;;;5.59;100.00;100311.88;5110922;28;20028;-69
2022/02/16 04:59:22;;;;;;;89.50;46.78;;;;;;;5.69;100.00;100307.63;5110627;27;20435;-69
2022/02/16 05:01:48;;;;;;;83.38;46.67;;;;;;;5.63;100.00;100302.72;5110722;28;20036;-70
2022/02/16 05:04:13;;;;;;;85.75;48.03;;;;;;;5.74;100.00;100303.69;5110557;28;20051;-70
2022/02/16 05:06:41;;;;;;;84.80;48.08;;;;;;;5.71;100.00;100306.56;5109550;28;20536;-70
2022/02/16 05:09:08;;;;;;;91.03;48.92;;;;;;;5.68;100.00;100301.44;5110922;28;20030;-69
2022/02/16 05:11:35;;;;;;;80.85;47.03;;;;;;;5.62;100.00;100277.09;5110800;28;20031;-69
2022/02/16 05:14:00;;;;;;;88.53;49.88;;;;;;;5.64;100.00;100294.66;5108363;28;20039;-70
2022/02/16 05:16:26;;;;;;;87.15;48.38;;;;;;;5.64;100.00;100307.94;5110030;28;20077;-70
2022/02/16 05:18:51;;;;;;;88.18;47.92;;;;;;;5.62;100.00;100303.69;5109710;28;20019;-69
2022/02/16 05:21:17;;;;;;;87.95;47.50;;;;;;;5.64;100.00;100304.44;5110667;28;20050;-70
2022/02/16 05:23:43;;;;;;;88.20;48.13;;;;;;;5.67;100.00;100301.59;5110969;28;20024;-70
2022/02/16 05:26:09;;;;;;;86.15;47.65;;;;;;;5.70;100.00;100317.31;5109986;28;20043;-69
2022/02/16 05:28:34;;;;;;;84.57;46.80;;;;;;;5.66;100.00;100310.50;5110847;28;20434;-69
2022/02/16 05:31:00;;;;;;;88.47;49.67;;;;;;;5.67;100.00;100305.06;5110733;28;20107;-69
2022/02/16 05:33:26;;;;;;;93.63;48.92;;;;;;;5.62;100.00;100307.22;5111014;28;20035;-76
2022/02/16 05:35:52;;;;;;;83.82;45.97;;;;;;;5.64;100.00;100301.78;5111276;28;20019;-76
2022/02/16 05:38:17;;;;;;;87.35;48.25;;;;;;;5.63;100.00;100327.53;5112214;28;20030;-77
2022/02/16 05:40:43;;;;;;;87.65;46.80;;;;;;;5.51;100.00;100328.34;5111433;28;20019;-77
2022/02/16 05:43:13;;;;;;;77.78;45.97;;;;;;;5.53;100.00;100336.22;5112132;28;20040;-77
2022/02/16 05:45:42;;;;;;;86.45;48.40;;;;;;;5.56;100.00;100352.84;5114084;28;20032;-77
2022/02/16 05:48:08;;;;;;;90.82;48.70;;;;;;;5.50;100.00;100357.72;5113253;28;20038;-76
2022/02/16 05:50:34;;;;;;;92.68;49.00;;;;;;;5.52;100.00;100339.84;5114206;28;20479;-76
2022/02/16 05:53:00;;;;;;;96.10;49.63;;;;;;;5.64;100.00;100368.31;5113730;28;20023;-77
2022/02/16 05:55:26;;;;;;;97.75;49.08;;;;;;;5.50;100.00;100355.91;5113792;28;20401;-76
2022/02/16 05:57:51;;;;;;;99.43;50.00;;;;;;;5.53;100.00;100365.47;5113733;28;20023;-77
2022/02/16 06:00:17;;;;;;;92.38;47.35;;;;;;;5.52;100.00;100377.94;5114205;28;20035;-77
2022/02/16 06:02:43;;;;;;;94.45;49.88;;;;;;;5.50;100.00;100371.00;5114833;28;20051;-76
2022/02/16 06:05:09;;;;;;;97.32;49.25;;;;;;;5.52;100.00;100383.28;5114396;28;20080;-75
2022/02/16 06:07:34;;;;;;;92.57;49.65;;;;;;;5.40;100.00;100373.44;5111383;27;20031;-76
2022/02/16 06:10:00;;;;;;;95.30;48.38;;;;;;;5.45;100.00;100381.94;5110005;28;20056;-76
2022/02/16 06:12:25;;;;;;;102.05;50.67;;;;;;;5.51;100.00;100389.53;5113141;28;20065;-77
2022/02/16 06:14:51;;;;;;;104.57;52.67;;;;;;;5.57;100.00;100383.81;5112825;28;20104;-77
2022/02/16 06:17:17;;;;;;;100.05;50.50;;;;;;;5.59;100.00;100394.34;5113893;28;20023;-76
2022/02/16 06:19:42;;;;;;;105.47;51.42;;;;;;;5.58;100.00;100390.00;5113503;28;20061;-77
2022/02/16 06:22:08;;;;;;;97.93;49.75;;;;;;;5.54;100.00;100393.78;5113572;28;20027;-76
2022/02/16 06:24:34;;;;;;;105.03;49.88;;;;;;;5.61;100.00;100393.28;5113913;28;20752;-76
2022/02/16 06:27:00;;;;;;;98.25;49.50;;;;;;;5.56;100.00;100395.41;5112039;28;20027;-77
2022/02/16 06:29:25;;;;;;;90.22;46.35;;;;;;;5.56;100.00;100400.72;5108245;28;20119;-70
2022/02/16 06:31:51;;;;;;;93.72;47.97;;;;;;;5.58;100.00;100395.31;5108273;28;20479;-71
2022/02/16 06:34:16;;;;;;;92.63;50.33;;;;;;;5.65;100.00;100394.81;5108496;28;20229;-70
2022/02/16 06:36:42;;;;;;;95.03;49.40;;;;;;;5.62;100.00;100391.47;5108927;28;20031;-70
2022/02/16 06:39:07;;;;;;;99.85;49.85;;;;;;;5.62;100.00;100392.34;5106693;28;20035;-70
2022/02/16 06:41:33;;;;;;;92.32;49.83;;;;;;;5.64;100.00;100389.59;5107958;28;20023;-70
2022/02/16 06:43:58;;;;;;;93.20;48.83;;;;;;;5.60;100.00;100380.94;5108034;28;20028;-70
2022/02/16 06:46:24;;;;;;;92.07;48.50;;;;;;;5.77;100.00;100388.63;5108666;28;20062;-69
2022/02/16 06:48:50;;;;;;;85.53;46.78;;;;;;;5.76;100.00;100386.94;5109358;28;20023;-70
2022/02/16 06:51:17;;;;;;;93.25;49.55;;;;;;;5.83;100.00;100387.41;5107938;28;20027;-70
2022/02/16 06:53:42;;;;;;;87.50;46.80;;;;;;;5.76;100.00;100360.34;5109548;28;20051;-70
2022/02/16 06:56:08;;;;;;;91.07;48.20;;;;;;;5.90;100.00;100381.56;5108927;28;20059;-69
2022/02/16 06:58:33;;;;;;;83.20;46.80;;;;;;;5.92;100.00;100371.69;5108625;28;20653;-71
2022/02/16 07:00:59;;;;;;;89.38;48.20;;;;;;;5.90;100.00;100378.06;5109468;28;20023;-69
2022/02/16 07:03:24;;;;;;;87.70;46.50;;;;;;;5.91;100.00;100380.63;5108853;28;20116;-70
2022/02/16 07:05:50;;;;;;;83.38;46.25;;;;;;;6.00;100.00;100385.31;5109272;28;20054;-69
2022/02/16 07:08:15;;;;;;;80.95;46.28;;;;;;;6.01;100.00;100376.38;5109526;28;20102;-70
2022/02/16 07:10:41;;;;;;;78.43;44.05;;;;;;;6.02;100.00;100380.75;5108474;28;20032;-70
2022/02/16 07:13:07;;;;;;;80.63;45.95;;;;;;;6.17;100.00;100374.38;5108983;28;20509;-70
2022/02/16 07:15:32;;;;;;;85.93;47.97;;;;;;;6.29;100.00;100373.50;5109224;28;20474;-70
2022/02/16 07:18:01;;;;;;;86.07;46.25;;;;;;;6.33;100.00;100385.69;5109012;28;20045;-70
2022/02/16 07:20:26;;;;;;;82.15;45.15;;;;;;;6.42;100.00;100385.00;5108801;28;20031;-70
2022/02/16 07:22:52;;;;;;;85.97;46.80;;;;;;;6.41;100.00;100382.47;5107649;28;20489;-70
2022/02/16 07:25:17;;;;;;;81.43;46.95;;;;;;;6.40;100.00;100380.75;5108666;28;20032;-70
2022/02/16 07:27:43;;;;;;;85.40;46.95;;;;;;;6.45;100.00;100375.97;5109135;28;20059;-70
2022/02/16 07:30:11;;;;;;;76.22;45.45;;;;;;;6.46;100.00;100386.53;5108680;28;20031;-70
2022/02/16 07:32:41;;;;;;;78.72;44.42;;;;;;;6.40;100.00;100392.28;5108335;28;20423;-70
2022/02/16 07:35:09;;;;;;;80.78;46.08;;;;;;;6.40;100.00;100389.63;5105836;28;20827;-69
2022/02/16 07:37:35;;;;;;;89.20;45.67;;;;;;;6.37;100.00;100383.63;5108323;28;20104;-77
2022/02/16 07:40:01;;;;;;;76.60;43.22;;;;;;;6.39;100.00;100395.88;5109889;28;20055;-78
2022/02/16 07:42:27;;;;;;;75.15;43.83;;;;;;;6.41;100.00;100395.78;5109967;28;20039;-77
2022/02/16 07:44:53;;;;;;;79.30;44.25;;;;;;;6.46;100.00;100396.31;5108644;28;20390;-78
2022/02/16 07:47:19;;;;;;;80.65;44.85;;;;;;;6.57;100.00;100394.63;5110816;28;20031;-77
2022/02/16 07:49:44;;;;;;;72.35;42.03;;;;;;;6.57;100.00;100389.28;5111299;28;20016;-77
2022/02/16 07:52:10;;;;;;;74.32;41.83;;;;;;;6.64;100.00;100381.69;5110210;28;20054;-78
2022/02/16 07:54:35;;;;;;;74.30;40.60;;;;;;;6.70;100.00;100370.59;5106280;28;20039;-70
2022/02/16 07:57:01;;;;;;;69.82;41.80;;;;;;;6.85;100.00;100389.03;5103790;28;20030;-69
2022/02/16 07:59:28;;;;;;;70.05;40.92;;;;;;;6.87;100.00;100397.75;5107934;28;20434;-70
2022/02/16 08:01:54;;;;;;;65.55;39.28;;;;;;;7.03;100.00;100396.69;5108305;28;20024;-69
2022/02/16 08:04:20;;;;;;;63.08;38.75;;;;;;;6.91;100.00;100383.25;5107968;28;20498;-69
2022/02/16 08:06:47;;;;;;;52.65;32.88;;;;;;;7.11;100.00;100391.63;5107005;28;20027;-70
2022/02/16 08:09:14;;;;;;;55.70;33.28;;;;;;;6.99;100.00;100391.56;5106513;28;20122;-69
2022/02/16 08:11:41;;;;;;;49.85;31.25;;;;;;;7.03;100.00;100396.69;5109433;28;20030;-79
2022/02/16 08:14:07;;;;;;;46.28;28.85;;;;;;;7.03;100.00;100393.03;5109780;28;20024;-78
2022/02/16 08:16:34;;;;;;;44.67;29.30;;;;;;;7.07;100.00;100392.81;5110999;28;20128;-79
2022/02/16 08:19:00;;;;;;;43.63;28.77;;;;;;;7.09;100.00;100385.56;5110802;28;20019;-79
2022/02/16 08:21:26;;;;;;;43.97;29.33;;;;;;;7.06;100.00;100380.47;5110842;28;20039;-77
2022/02/16 08:23:52;;;;;;;48.92;31.13;;;;;;;7.01;100.00;100378.13;5113862;28;20019;-77
2022/02/16 08:26:17;;;;;;;45.55;28.65;;;;;;;6.99;100.00;100375.56;5113802;28;20180;-78
2022/02/16 08:28:43;;;;;;;44.72;28.63;;;;;;;7.07;100.00;100389.19;5114126;28;20237;-78
2022/02/16 08:31:08;;;;;;;45.47;28.45;;;;;;;7.00;100.00;100379.94;5114645;28;20031;-79
2022/02/16 08:33:34;;;;;;;45.67;28.25;;;;;;;7.04;100.00;100388.56;5114685;28;20130;-78
2022/02/16 08:35:59;;;;;;;44.58;28.17;;;;;;;7.03;100.00;100383.34;5115428;28;20030;-77
2022/02/16 08:38:25;;;;;;;32.75;22.27;;;;;;;7.07;100.00;100400.81;5113728;28;20055;-78
2022/02/16 08:40:50;;;;;;;32.90;22.42;;;;;;;6.96;100.00;100386.44;5114585;28;20023;-79
2022/02/16 08:43:16;;;;;;;30.73;20.92;;;;;;;6.91;100.00;100385.91;5114017;28;20039;-77
2022/02/16 08:45:44;;;;;;;31.23;21.88;;;;;;;6.94;100.00;100409.69;5114665;28;20091;-78
2022/02/16 08:48:09;;;;;;;28.52;20.35;;;;;;;6.90;100.00;100399.34;5109841;28;20047;-77
2022/02/16 08:50:35;;;;;;;30.27;20.13;;;;;;;6.97;100.00;100414.81;5115602;28;20390;-78
2022/02/16 08:53:01;;;;;;;27.88;19.08;;;;;;;7.04;100.00;100415.22;5114980;28;20035;-77
2022/02/16 08:55:27;;;;;;;24.70;16.58;;;;;;;7.16;100.00;100414.31;5113648;28;20019;-78
2022/02/16 08:57:53;;;;;;;21.58;15.63;;;;;;;7.12;100.00;100412.03;5114347;28;20031;-77
2022/02/16 09:00:19;;;;;;;22.45;15.45;;;;;;;7.03;100.00;100401.03;5114915;28;20482;-78
2022/02/16 09:02:44;;;;;;;21.83;15.38;;;;;;;7.06;100.00;100407.97;5114552;28;20015;-78
2022/02/16 09:05:10;;;;;;;18.75;14.05;;;;;;;6.99;100.00;100406.69;5113053;28;20114;-78
2022/02/16 09:07:35;;;;;;;22.60;15.95;;;;;;;7.03;100.00;100398.38;5113810;28;20034;-78
2022/02/16 09:10:05;;;;;;;22.65;15.05;;;;;;;7.09;100.00;100404.25;5114364;28;20028;-78
2022/02/16 09:12:31;;;;;;;21.02;14.85;;;;;;;7.08;100.00;100398.03;5113704;28;20463;-77
2022/02/16 09:14:57;;;;;;;22.95;15.65;;;;;;;7.11;100.00;100405.81;5114324;28;20031;-78
2022/02/16 09:17:26;;;;;;;23.48;14.82;;;;;;;7.08;100.00;100398.03;5113886;28;20046;-78
2022/02/16 09:19:53;;;;;;;23.80;15.80;;;;;;;7.07;100.00;100390.16;5114565;28;20020;-78
2022/02/16 09:22:19;;;;;;;23.70;15.63;;;;;;;7.17;100.00;100401.84;5112466;28;20049;-78
2022/02/16 09:24:45;;;;;;;24.02;16.33;;;;;;;7.15;100.00;100385.97;5113429;28;20106;-79
2022/02/16 09:27:13;;;;;;;23.52;15.82;;;;;;;7.25;100.00;100400.34;5113316;28;20130;-78
2022/02/16 09:29:40;;;;;;;23.35;16.48;;;;;;;7.23;100.00;100388.06;5111113;28;20087;-77
2022/02/16 09:32:05;;;;;;;24.40;16.58;;;;;;;7.31;100.00;100397.22;5113002;28;20031;-76
2022/02/16 09:34:31;;;;;;;23.77;16.20;;;;;;;7.22;100.00;100389.88;5110930;28;20011;-78
2022/02/16 09:36:57;;;;;;;25.85;17.45;;;;;;;7.39;100.00;100410.00;5110272;28;20020;-78
2022/02/16 09:39:22;;;;;;;27.83;17.27;;;;;;;7.43;100.00;100412.34;5112067;28;20089;-78
2022/02/16 09:41:47;;;;;;;24.35;16.95;;;;;;;7.43;100.00;100403.47;5112141;28;20031;-79
2022/02/16 09:44:16;;;;;;;27.95;16.73;;;;;;;7.40;100.00;100393.03;5110880;28;20094;-69
2022/02/16 09:46:41;;;;;;;29.08;18.50;;;;;;;7.68;98.88;100403.38;5110572;27;20036;-69
2022/02/16 09:49:10;;;;;;;33.22;19.30;;;;;;;7.60;99.69;100403.06;5110551;28;20078;-67
2022/02/16 09:51:36;;;;;;;31.08;20.40;;;;;;;7.71;98.83;100397.81;5110466;28;20023;-69
2022/02/16 09:54:01;;;;;;;35.92;21.17;;;;;;;7.76;97.54;100385.81;5110171;28;20042;-78
2022/02/16 09:56:28;;;;;;;36.22;21.50;;;;;;;7.86;96.72;100389.47;5117363;28;20478;-77
2022/02/16 09:58:53;;;;;;;40.38;23.33;;;;;;;7.90;95.58;100390.94;5114400;28;20035;-78
2022/02/16 10:01:19;;;;;;;36.78;21.67;;;;;;;7.83;95.72;100387.03;5114984;28;20024;-77
2022/02/16 10:04:03;;;;;;;39.58;22.08;;;;;;;7.80;97.17;100389.94;5114028;28;20472;-78
2022/02/16 10:06:39;;;;;;;41.88;22.80;;;;;;;7.77;96.25;100382.16;5111961;28;20042;-77
2022/02/16 10:09:05;;;;;;;41.22;24.30;;;;;;;7.83;95.85;100375.53;5111511;28;20051;-78
2022/02/16 10:11:31;;;;;;;35.47;22.55;;;;;;;7.79;96.46;100372.22;5110707;27;20028;-77
2022/02/16 10:14:23;;;;;;;38.53;23.80;;;;;;;7.77;97.05;100367.97;5111707;27;20020;-78
2022/02/16 10:16:49;;;;;;;36.72;23.20;;;;;;;7.74;97.01;100355.69;5111139;28;20035;-78
2022/02/16 10:19:15;;;;;;;37.55;23.42;;;;;;;7.73;97.49;100353.13;5110745;28;20824;-76
2022/02/16 10:22:00;;;;;;;36.65;22.25;;;;;;;7.85;96.60;100365.56;5111298;27;20024;-77
2022/02/16 10:24:26;;;;;;;34.28;20.98;;;;;;;7.81;96.82;100358.75;5110896;28;20591;-78
2022/02/16 10:26:53;;;;;;;36.38;21.85;;;;;;;7.80;97.06;100354.41;5111741;28;20019;-78
2022/02/16 10:29:21;;;;;;;33.65;20.83;;;;;;;8.01;95.90;100358.09;5108679;28;20471;-77
2022/02/16 10:31:46;;;;;;;31.98;19.42;;;;;;;7.97;96.12;100376.16;5111445;28;20031;-76
2022/02/16 10:34:12;;;;;;;27.38;18.73;;;;;;;8.02;94.78;100362.44;5110865;28;20088;-77
2022/02/16 10:36:37;;;;;;;28.40;18.02;;;;;;;7.95;94.65;100362.09;5110643;28;20039;-78
2022/02/16 10:39:12;;;;;;;31.50;18.63;;;;;;;8.08;93.21;100362.00;5109906;28;20097;-78
2022/02/16 10:41:42;;;;;;;;;;;;;;;8.13;92.66;100363.34;5111226;27;20019;-77
2022/02/16 10:44:36;;;;;;;26.23;16.27;;;;;;;8.12;92.54;100358.09;5110744;28;20413;-70
2022/02/16 10:47:02;;;;;;;;;;;;;;;8.01;92.91;100353.63;5100722;28;20137;-68
2022/02/16 10:49:28;;;;;;;26.45;15.73;;;;;;;8.12;93.08;100345.63;5109403;28;20021;-69
2022/02/16 10:52:15;;;;;;;25.30;14.98;;;;;;;8.01;93.69;100337.59;5109336;28;20023;-69
2022/02/16 10:54:51;;;;;;;24.65;15.65;;;;;;;8.02;93.77;100346.44;5107320;28;20022;-69
2022/02/16 10:57:17;;;;;;;30.17;16.00;;;;;;;7.91;94.70;100328.59;5107185;28;20043;-67
2022/02/16 10:59:43;;;;;;;24.02;14.93;;;;;;;7.97;94.41;100338.78;5108770;28;20028;-69
2022/02/16 11:02:08;;;;;;;23.15;15.27;;;;;;;8.00;94.27;100349.22;5108652;28;20031;-68
2022/02/16 11:04:37;;;;;;;25.02;15.45;;;;;;;8.14;92.40;100329.47;5109140;28;20031;-69
2022/02/16 11:07:06;;;;;;;24.33;15.57;;;;;;;8.10;93.18;100322.66;5107475;28;20433;-69
2022/02/16 11:09:41;;;;;;;25.30;15.77;;;;;;;8.12;93.65;100332.25;5108797;28;20016;-69